sensor_id;sensor_type;location;lat;lon;timestamp;P1;P2;P0
64570;PMS5003;61095;52.454;16.948;2022-08-30T04:03:09;0.00;0.00;0.00
64570;PMS5003;61095;52.454;16.948;2022-08-30T04:08:08;1.00;0.00;0.00
64570;PMS5003;61095;52.454;16.948;2022-08-30T04:13:06;0.00;0.00;0.00
64570;PMS5003;61095;52.454;16.948;2022-08-30T04:18:05;0.00;0.00;0.00
64570;PMS5003;61095;52.454;16.948;2022-08-30T04:23:05;1.33;1.00;0.00
64570;PMS5003;61095;52.454;16.948;2022-08-30T04:28:04;2.00;2.00;0.00
64570;PMS5003;61095;52.454;16.948;2022-08-30T04:33:03;1.00;1.00;0.00
64570;PMS5003;61095;52.454;16.948;2022-08-30T04:38:01;1.00;1.00;0.00
64570;PMS5003;61095;52.454;16.948;2022-08-30T04:43:01;1.00;0.00;0.00
64570;PMS5003;61095;52.454;16.948;2022-08-30T04:48:00;2.00;2.00;0.00
64570;PMS5003;61095;52.454;16.948;2022-08-30T04:52:58;1.00;1.00;0.00
64570;PMS5003;61095;52.454;16.948;2022-08-30T04:57:57;1.67;1.67;0.00
64570;PMS5003;61095;52.454;16.948;2022-08-30T05:02:58;3.00;3.00;0.00
64570;PMS5003;61095;52.454;16.948;2022-08-30T05:07:57;1.00;1.00;0.00
64570;PMS5003;61095;52.454;16.948;2022-08-30T05:12:56;1.00;1.00;0.00
64570;PMS5003;61095;52.454;16.948;2022-08-30T05:17:54;0.00;0.00;0.00
64570;PMS5003;61095;52.454;16.948;2022-08-30T05:22:54;1.00;1.00;0.00
64570;PMS5003;61095;52.454;16.948;2022-08-30T05:27:53;0.00;0.00;0.00
64570;PMS5003;61095;52.454;16.948;2022-08-30T05:32:53;0.00;0.00;0.00
64570;PMS5003;61095;52.454;16.948;2022-08-30T05:37:52;0.00;0.00;0.00
64570;PMS5003;61095;52.454;16.948;2022-08-30T05:42:52;0.00;0.00;0.00
64570;PMS5003;61095;52.454;16.948;2022-08-30T05:47:51;0.00;0.00;0.00
64570;PMS5003;61095;52.454;16.948;2022-08-30T05:52:49;0.00;0.00;0.00
64570;PMS5003;61095;52.454;16.948;2022-08-30T05:57:48;0.00;0.00;0.00
64570;PMS5003;61095;52.454;16.948;2022-08-30T06:02:51;0.00;0.00;0.00
64570;PMS5003;61095;52.454;16.948;2022-08-30T06:07:50;0.00;0.00;0.00
64570;PMS5003;61095;52.454;16.948;2022-08-30T06:12:49;0.00;0.00;0.00
64570;PMS5003;61095;52.454;16.948;2022-08-30T06:17:48;0.00;0.00;0.00
64570;PMS5003;61095;52.454;16.948;2022-08-30T06:22:47;0.00;0.00;0.00
64570;PMS5003;61095;52.454;16.948;2022-08-30T06:27:46;0.00;0.00;0.00
64570;PMS5003;61095;52.454;16.948;2022-08-30T06:32:44;0.00;0.00;0.00
64570;PMS5003;61095;52.454;16.948;2022-08-30T06:37:44;0.00;0.00;0.00
64570;PMS5003;61095;52.454;16.948;2022-08-30T06:42:42;0.00;0.00;0.00
64570;PMS5003;61095;52.454;16.948;2022-08-30T06:47:41;0.00;0.00;0.00
64570;PMS5003;61095;52.454;16.948;2022-08-30T06:52:40;0.00;0.00;0.00
64570;PMS5003;61095;52.454;16.948;2022-08-30T06:57:41;0.00;0.00;0.00
64570;PMS5003;61095;52.454;16.948;2022-08-30T07:02:39;0.00;0.00;0.00
64570;PMS5003;61095;52.454;16.948;2022-08-30T07:07:38;0.00;0.00;0.00
64570;PMS5003;61095;52.454;16.948;2022-08-30T07:12:36;0.00;0.00;0.00
64570;PMS5003;61095;52.454;16.948;2022-08-30T07:17:36;0.00;0.00;0.00
64570;PMS5003;61095;52.454;16.948;2022-08-30T07:22:51;0.00;0.00;0.00
64570;PMS5003;61095;52.454;16.948;2022-08-30T07:27:50;0.00;0.00;0.00
64570;PMS5003;61095;52.454;16.948;2022-08-30T07:32:50;0.00;0.00;0.00
64570;PMS5003;61095;52.454;16.948;2022-08-30T07:37:48;0.00;0.00;0.00
64570;PMS5003;61095;52.454;16.948;2022-08-30T07:42:47;0.00;0.00;0.00
64570;PMS5003;61095;52.454;16.948;2022-08-30T07:47:45;0.00;0.00;0.00
64570;PMS5003;61095;52.454;16.948;2022-08-30T07:52:45;2.67;2.67;0.00
64570;PMS5003;61095;52.454;16.948;2022-08-30T07:57:44;1.00;1.00;0.00
64570;PMS5003;61095;52.454;16.948;2022-08-30T08:02:42;53.67;45.00;31.00
64570;PMS5003;61095;52.454;16.948;2022-08-30T08:07:41;47.33;40.00;28.00
64570;PMS5003;61095;52.454;16.948;2022-08-30T08:12:41;16.00;16.00;8.33
64570;PMS5003;61095;52.454;16.948;2022-08-30T08:17:40;0.67;0.67;0.00
64570;PMS5003;61095;52.454;16.948;2022-08-30T08:22:38;0.00;0.00;0.00
64570;PMS5003;61095;52.454;16.948;2022-08-30T08:27:36;0.00;0.00;0.00
64570;PMS5003;61095;52.454;16.948;2022-08-30T08:32:36;0.00;0.00;0.00
64570;PMS5003;61095;52.454;16.948;2022-08-30T08:37:35;0.00;0.00;0.00
64570;PMS5003;61095;52.454;16.948;2022-08-30T08:42:35;0.00;0.00;0.00
64570;PMS5003;61095;52.454;16.948;2022-08-30T08:47:50;0.00;0.00;0.00
64570;PMS5003;61095;52.454;16.948;2022-08-30T08:52:56;0.00;0.00;0.00
64570;PMS5003;61095;52.454;16.948;2022-08-30T08:58:19;0.00;0.00;0.00
64570;PMS5003;61095;52.454;16.948;2022-08-30T09:03:22;0.00;0.00;0.00
64570;PMS5003;61095;52.454;16.948;2022-08-30T09:08:23;0.00;0.00;0.00
64570;PMS5003;61095;52.454;16.948;2022-08-30T09:13:23;0.00;0.00;0.00
64570;PMS5003;61095;52.454;16.948;2022-08-30T09:23:45;0.00;0.00;0.00
64570;PMS5003;61095;52.454;16.948;2022-08-30T09:28:47;0.00;0.00;0.00
64570;PMS5003;61095;52.454;16.948;2022-08-30T09:33:53;0.00;0.00;0.00
64570;PMS5003;61095;52.454;16.948;2022-08-30T09:38:57;0.00;0.00;0.00
64570;PMS5003;61095;52.454;16.948;2022-08-30T09:44:02;0.00;0.00;0.00
64570;PMS5003;61095;52.454;16.948;2022-08-30T09:49:04;0.00;0.00;0.00
64570;PMS5003;61095;52.454;16.948;2022-08-30T09:54:25;0.00;0.00;0.00
64570;PMS5003;61095;52.454;16.948;2022-08-30T09:59:40;0.00;0.00;0.00
64570;PMS5003;61095;52.454;16.948;2022-08-30T10:04:48;0.00;0.00;0.00
64570;PMS5003;61095;52.454;16.948;2022-08-30T10:10:02;0.00;0.00;0.00
64570;PMS5003;61095;52.454;16.948;2022-08-30T10:15:10;0.00;0.00;0.00
64570;PMS5003;61095;52.454;16.948;2022-08-30T10:20:20;0.00;0.00;0.00
64570;PMS5003;61095;52.454;16.948;2022-08-30T10:25:26;0.00;0.00;0.00
64570;PMS5003;61095;52.454;16.948;2022-08-30T10:30:30;0.00;0.00;0.00
64570;PMS5003;61095;52.454;16.948;2022-08-30T10:35:35;0.00;0.00;0.00
64570;PMS5003;61095;52.454;16.948;2022-08-30T10:40:41;0.00;0.00;0.00
64570;PMS5003;61095;52.454;16.948;2022-08-30T10:46:10;0.00;0.00;0.00
64570;PMS5003;61095;52.454;16.948;2022-08-30T10:51:29;0.00;0.00;0.00
64570;PMS5003;61095;52.454;16.948;2022-08-30T10:56:31;0.00;0.00;0.00
64570;PMS5003;61095;52.454;16.948;2022-08-30T11:01:38;0.00;0.00;0.00
64570;PMS5003;61095;52.454;16.948;2022-08-30T11:06:54;0.00;0.00;0.00
64570;PMS5003;61095;52.454;16.948;2022-08-30T11:12:11;0.00;0.00;0.00
64570;PMS5003;61095;52.454;16.948;2022-08-30T11:17:24;0.00;0.00;0.00
64570;PMS5003;61095;52.454;16.948;2022-08-30T11:22:28;0.00;0.00;0.00
64570;PMS5003;61095;52.454;16.948;2022-08-30T11:27:47;0.00;0.00;0.00
64570;PMS5003;61095;52.454;16.948;2022-08-30T11:32:57;0.00;0.00;0.00
64570;PMS5003;61095;52.454;16.948;2022-08-30T11:38:00;0.00;0.00;0.00
64570;PMS5003;61095;52.454;16.948;2022-08-30T11:48:40;0.00;0.00;0.00
64570;PMS5003;61095;52.454;16.948;2022-08-30T11:53:43;0.00;0.00;0.00
64570;PMS5003;61095;52.454;16.948;2022-08-30T11:58:50;0.00;0.00;0.00
64570;PMS5003;61095;52.454;16.948;2022-08-30T12:03:55;0.00;0.00;0.00
64570;PMS5003;61095;52.454;16.948;2022-08-30T12:08:58;0.00;0.00;0.00
64570;PMS5003;61095;52.454;16.948;2022-08-30T12:13:56;0.00;0.00;0.00
64570;PMS5003;61095;52.454;16.948;2022-08-30T12:18:55;0.00;0.00;0.00
64570;PMS5003;61095;52.454;16.948;2022-08-30T12:24:03;0.00;0.00;0.00
64570;PMS5003;61095;52.454;16.948;2022-08-30T12:29:06;0.00;0.00;0.00
64570;PMS5003;61095;52.454;16.948;2022-08-30T12:34:16;0.00;0.00;0.00
64570;PMS5003;61095;52.454;16.948;2022-08-30T12:39:21;0.00;0.00;0.00
64570;PMS5003;61095;52.454;16.948;2022-08-30T12:44:22;0.00;0.00;0.00
64570;PMS5003;61095;52.454;16.948;2022-08-30T12:49:24;0.00;0.00;0.00
64570;PMS5003;61095;52.454;16.948;2022-08-30T12:54:28;0.00;0.00;0.00
64570;PMS5003;61095;52.454;16.948;2022-08-30T12:59:37;0.00;0.00;0.00
64570;PMS5003;61095;52.454;16.948;2022-08-30T13:04:38;0.00;0.00;0.00
64570;PMS5003;61095;52.454;16.948;2022-08-30T13:09:40;0.00;0.00;0.00
64570;PMS5003;61095;52.454;16.948;2022-08-30T13:14:40;0.00;0.00;0.00
64570;PMS5003;61095;52.454;16.948;2022-08-30T13:19:42;0.00;0.00;0.00
64570;PMS5003;61095;52.454;16.948;2022-08-30T13:24:42;0.00;0.00;0.00
64570;PMS5003;61095;52.454;16.948;2022-08-30T13:29:40;0.00;0.00;0.00
64570;PMS5003;61095;52.454;16.948;2022-08-30T13:34:39;0.00;0.00;0.00
64570;PMS5003;61095;52.454;16.948;2022-08-30T13:39:38;0.00;0.00;0.00
64570;PMS5003;61095;52.454;16.948;2022-08-30T13:44:38;0.00;0.00;0.00
64570;PMS5003;61095;52.454;16.948;2022-08-30T13:49:37;0.00;0.00;0.00
64570;PMS5003;61095;52.454;16.948;2022-08-30T13:54:37;0.00;0.00;0.00
64570;PMS5003;61095;52.454;16.948;2022-08-30T13:59:35;0.00;0.00;0.00
64570;PMS5003;61095;52.454;16.948;2022-08-30T14:04:35;0.00;0.00;0.00
64570;PMS5003;61095;52.454;16.948;2022-08-30T14:09:34;0.00;0.00;0.00
64570;PMS5003;61095;52.454;16.948;2022-08-30T14:14:32;0.00;0.00;0.00
64570;PMS5003;61095;52.454;16.948;2022-08-30T14:19:31;0.00;0.00;0.00
64570;PMS5003;61095;52.454;16.948;2022-08-30T14:24:31;0.00;0.00;0.00
64570;PMS5003;61095;52.454;16.948;2022-08-30T14:29:29;0.00;0.00;0.00
64570;PMS5003;61095;52.454;16.948;2022-08-30T14:34:28;0.00;0.00;0.00
64570;PMS5003;61095;52.454;16.948;2022-08-30T14:39:27;0.00;0.00;0.00
64570;PMS5003;61095;52.454;16.948;2022-08-30T14:44:27;0.00;0.00;0.00
64570;PMS5003;61095;52.454;16.948;2022-08-30T14:49:26;0.00;0.00;0.00
64570;PMS5003;61095;52.454;16.948;2022-08-30T14:54:27;0.00;0.00;0.00
64570;PMS5003;61095;52.454;16.948;2022-08-30T14:59:28;0.00;0.00;0.00
64570;PMS5003;61095;52.454;16.948;2022-08-30T15:04:26;0.00;0.00;0.00
64570;PMS5003;61095;52.454;16.948;2022-08-30T15:09:26;0.00;0.00;0.00
64570;PMS5003;61095;52.454;16.948;2022-08-30T15:14:24;0.00;0.00;0.00
64570;PMS5003;61095;52.454;16.948;2022-08-30T15:19:26;0.00;0.00;0.00
64570;PMS5003;61095;52.454;16.948;2022-08-30T15:24:24;0.00;0.00;0.00
64570;PMS5003;61095;52.454;16.948;2022-08-30T15:29:23;0.00;0.00;0.00
64570;PMS5003;61095;52.454;16.948;2022-08-30T15:34:21;0.00;0.00;0.00
64570;PMS5003;61095;52.454;16.948;2022-08-30T15:39:21;0.00;0.00;0.00
64570;PMS5003;61095;52.454;16.948;2022-08-30T15:44:20;0.00;0.00;0.00
64570;PMS5003;61095;52.454;16.948;2022-08-30T15:49:20;0.00;0.00;0.00
64570;PMS5003;61095;52.454;16.948;2022-08-30T15:54:20;0.00;0.00;0.00
64570;PMS5003;61095;52.454;16.948;2022-08-30T15:59:20;0.00;0.00;0.00
64570;PMS5003;61095;52.454;16.948;2022-08-30T16:04:19;0.00;0.00;0.00
64570;PMS5003;61095;52.454;16.948;2022-08-30T16:09:18;0.00;0.00;0.00
64570;PMS5003;61095;52.454;16.948;2022-08-30T16:14:18;0.00;0.00;0.00
64570;PMS5003;61095;52.454;16.948;2022-08-30T16:19:16;0.00;0.00;0.00
64570;PMS5003;61095;52.454;16.948;2022-08-30T16:24:15;0.00;0.00;0.00
64570;PMS5003;61095;52.454;16.948;2022-08-30T16:29:14;0.00;0.00;0.00
64570;PMS5003;61095;52.454;16.948;2022-08-30T16:34:15;0.00;0.00;0.00
64570;PMS5003;61095;52.454;16.948;2022-08-30T16:39:14;0.00;0.00;0.00
64570;PMS5003;61095;52.454;16.948;2022-08-30T16:44:14;0.00;0.00;0.00
64570;PMS5003;61095;52.454;16.948;2022-08-30T16:49:12;0.00;0.00;0.00
64570;PMS5003;61095;52.454;16.948;2022-08-30T16:54:12;0.00;0.00;0.00
64570;PMS5003;61095;52.454;16.948;2022-08-30T16:59:11;0.00;0.00;0.00
64570;PMS5003;61095;52.454;16.948;2022-08-30T17:04:10;0.00;0.00;0.00
64570;PMS5003;61095;52.454;16.948;2022-08-30T17:09:09;0.00;0.00;0.00
64570;PMS5003;61095;52.454;16.948;2022-08-30T17:14:09;0.00;0.00;0.00
64570;PMS5003;61095;52.454;16.948;2022-08-30T17:19:07;0.00;0.00;0.00
64570;PMS5003;61095;52.454;16.948;2022-08-30T17:24:07;0.00;0.00;0.00
64570;PMS5003;61095;52.454;16.948;2022-08-30T17:29:06;0.00;0.00;0.00
64570;PMS5003;61095;52.454;16.948;2022-08-30T17:34:05;0.00;0.00;0.00
64570;PMS5003;61095;52.454;16.948;2022-08-30T17:39:05;0.00;0.00;0.00
64570;PMS5003;61095;52.454;16.948;2022-08-30T17:44:06;0.00;0.00;0.00
64570;PMS5003;61095;52.454;16.948;2022-08-30T17:49:06;0.00;0.00;0.00
64570;PMS5003;61095;52.454;16.948;2022-08-30T17:54:05;0.00;0.00;0.00
64570;PMS5003;61095;52.454;16.948;2022-08-30T17:59:04;0.00;0.00;0.00
64570;PMS5003;61095;52.454;16.948;2022-08-30T18:04:03;11.00;9.00;5.67
64570;PMS5003;61095;52.454;16.948;2022-08-30T18:09:04;10.00;8.33;4.00
64570;PMS5003;61095;52.454;16.948;2022-08-30T18:14:04;2.33;2.33;0.33
64570;PMS5003;61095;52.454;16.948;2022-08-30T18:19:03;0.00;0.00;0.00
64570;PMS5003;61095;52.454;16.948;2022-08-30T18:24:04;0.00;0.00;0.00
64570;PMS5003;61095;52.454;16.948;2022-08-30T18:29:03;0.00;0.00;0.00
64570;PMS5003;61095;52.454;16.948;2022-08-30T18:34:02;0.00;0.00;0.00
64570;PMS5003;61095;52.454;16.948;2022-08-30T18:39:00;0.00;0.00;0.00
64570;PMS5003;61095;52.454;16.948;2022-08-30T18:44:00;0.00;0.00;0.00
64570;PMS5003;61095;52.454;16.948;2022-08-30T18:48:59;0.00;0.00;0.00
64570;PMS5003;61095;52.454;16.948;2022-08-30T18:53:58;0.00;0.00;0.00
64570;PMS5003;61095;52.454;16.948;2022-08-30T18:58:56;0.00;0.00;0.00
64570;PMS5003;61095;52.454;16.948;2022-08-30T19:03:56;0.00;0.00;0.00
64570;PMS5003;61095;52.454;16.948;2022-08-30T19:08:56;0.00;0.00;0.00
64570;PMS5003;61095;52.454;16.948;2022-08-30T19:13:55;0.00;0.00;0.00
64570;PMS5003;61095;52.454;16.948;2022-08-30T19:18:53;0.00;0.00;0.00
64570;PMS5003;61095;52.454;16.948;2022-08-30T19:23:53;0.00;0.00;0.00
64570;PMS5003;61095;52.454;16.948;2022-08-30T19:28:52;0.00;0.00;0.00
64570;PMS5003;61095;52.454;16.948;2022-08-30T19:33:50;0.00;0.00;0.00
64570;PMS5003;61095;52.454;16.948;2022-08-30T19:38:49;0.00;0.00;0.00
64570;PMS5003;61095;52.454;16.948;2022-08-30T19:43:49;0.00;0.00;0.00
64570;PMS5003;61095;52.454;16.948;2022-08-30T19:48:47;0.00;0.00;0.00
64570;PMS5003;61095;52.454;16.948;2022-08-30T19:53:46;0.00;0.00;0.00
64570;PMS5003;61095;52.454;16.948;2022-08-30T19:58:44;0.00;0.00;0.00
64570;PMS5003;61095;52.454;16.948;2022-08-30T20:03:44;0.00;0.00;0.00
64570;PMS5003;61095;52.454;16.948;2022-08-30T20:08:43;0.00;0.00;0.00
64570;PMS5003;61095;52.454;16.948;2022-08-30T20:13:42;0.00;0.00;0.00
64570;PMS5003;61095;52.454;16.948;2022-08-30T20:18:42;0.00;0.00;0.00
64570;PMS5003;61095;52.454;16.948;2022-08-30T20:23:44;0.00;0.00;0.00
64570;PMS5003;61095;52.454;16.948;2022-08-30T20:28:43;0.00;0.00;0.00
64570;PMS5003;61095;52.454;16.948;2022-08-30T20:33:43;0.00;0.00;0.00
64570;PMS5003;61095;52.454;16.948;2022-08-30T20:38:42;0.00;0.00;0.00
64570;PMS5003;61095;52.454;16.948;2022-08-30T20:43:42;0.00;0.00;0.00
64570;PMS5003;61095;52.454;16.948;2022-08-30T20:48:44;0.00;0.00;0.00
64570;PMS5003;61095;52.454;16.948;2022-08-30T20:53:43;0.00;0.00;0.00
64570;PMS5003;61095;52.454;16.948;2022-08-30T20:58:42;0.00;0.00;0.00
64570;PMS5003;61095;52.454;16.948;2022-08-30T21:03:42;0.00;0.00;0.00
64570;PMS5003;61095;52.454;16.948;2022-08-30T21:08:43;0.00;0.00;0.00
64570;PMS5003;61095;52.454;16.948;2022-08-30T21:13:42;0.00;0.00;0.00
64570;PMS5003;61095;52.454;16.948;2022-08-30T21:18:41;0.00;0.00;0.00
64570;PMS5003;61095;52.454;16.948;2022-08-30T21:23:41;0.00;0.00;0.00
64570;PMS5003;61095;52.454;16.948;2022-08-30T21:28:39;0.00;0.00;0.00
64570;PMS5003;61095;52.454;16.948;2022-08-30T21:33:38;0.00;0.00;0.00
64570;PMS5003;61095;52.454;16.948;2022-08-30T21:38:37;0.00;0.00;0.00
64570;PMS5003;61095;52.454;16.948;2022-08-30T21:43:37;0.00;0.00;0.00
64570;PMS5003;61095;52.454;16.948;2022-08-30T21:48:36;0.00;0.00;0.00
64570;PMS5003;61095;52.454;16.948;2022-08-30T21:53:34;0.00;0.00;0.00
64570;PMS5003;61095;52.454;16.948;2022-08-30T21:58:34;0.00;0.00;0.00
64570;PMS5003;61095;52.454;16.948;2022-08-30T22:08:34;0.00;0.00;0.00
64570;PMS5003;61095;52.454;16.948;2022-08-30T22:13:32;0.00;0.00;0.00
64570;PMS5003;61095;52.454;16.948;2022-08-30T22:18:31;0.00;0.00;0.00
64570;PMS5003;61095;52.454;16.948;2022-08-30T22:23:31;0.00;0.00;0.00
64570;PMS5003;61095;52.454;16.948;2022-08-30T22:28:30;0.00;0.00;0.00
64570;PMS5003;61095;52.454;16.948;2022-08-30T22:33:29;0.00;0.00;0.00
64570;PMS5003;61095;52.454;16.948;2022-08-30T22:38:28;0.00;0.00;0.00
64570;PMS5003;61095;52.454;16.948;2022-08-30T22:43:28;0.00;0.00;0.00
64570;PMS5003;61095;52.454;16.948;2022-08-30T22:48:27;0.00;0.00;0.00
64570;PMS5003;61095;52.454;16.948;2022-08-30T22:53:25;0.00;0.00;0.00
64570;PMS5003;61095;52.454;16.948;2022-08-30T22:58:24;0.00;0.00;0.00
64570;PMS5003;61095;52.454;16.948;2022-08-30T23:03:24;0.00;0.00;0.00
64570;PMS5003;61095;52.454;16.948;2022-08-30T23:08:22;0.00;0.00;0.00
64570;PMS5003;61095;52.454;16.948;2022-08-30T23:13:22;0.00;0.00;0.00
64570;PMS5003;61095;52.454;16.948;2022-08-30T23:18:20;0.00;0.00;0.00
64570;PMS5003;61095;52.454;16.948;2022-08-30T23:23:20;0.00;0.00;0.00
64570;PMS5003;61095;52.454;16.948;2022-08-30T23:28:36;0.00;0.00;0.00
64570;PMS5003;61095;52.454;16.948;2022-08-30T23:33:52;0.00;0.00;0.00
64570;PMS5003;61095;52.454;16.948;2022-08-30T23:39:10;0.00;0.00;0.00
64570;PMS5003;61095;52.454;16.948;2022-08-30T23:44:26;0.00;0.00;0.00
64570;PMS5003;61095;52.454;16.948;2022-08-30T23:49:42;0.00;0.00;0.00
64570;PMS5003;61095;52.454;16.948;2022-08-30T23:54:59;0.00;0.00;0.00
